Time;durP1;ratioP1;P1;durP2;ratioP2;P2;SDS_P1;SDS_P2;PMS_P1;PMS_P2;Temp;Humidity;BMP_temperature;BMP_pressure;BME280_temperature;BME280_humidity;BME280_pressure;Samples;Min_cycle;Max_cycle;Signal;HPM_P1;HPM_P2
2020/12/11 00:00:16;;;;;;;25.40;23.10;;;3.10;99.90;;;;;;5084654;28;20655;-90
2020/12/11 00:02:43;;;;;;;24.20;22.10;;;3.20;99.90;;;;;;5088520;28;20644;-90
2020/12/11 00:05:10;;;;;;;24.70;22.40;;;3.10;99.90;;;;;;5091535;28;20608;-90
2020/12/11 00:07:37;;;;;;;24.50;22.40;;;3.30;99.90;;;;;;5092812;28;21147;-91
2020/12/11 00:10:05;;;;;;;24.30;22.20;;;3.30;99.90;;;;;;5090621;28;20644;-90
2020/12/11 00:12:38;;;;;;;24.57;22.20;;;3.30;99.90;;;;;;5099834;28;20660;-89
2020/12/11 00:15:06;;;;;;;21.77;19.87;;;3.40;99.90;;;;;;5092381;28;20675;-88
2020/12/11 00:17:33;;;;;;;23.20;21.10;;;3.40;99.90;;;;;;5092978;28;21442;-89
2020/12/11 00:20:01;;;;;;;22.33;20.37;;;3.40;99.90;;;;;;5095160;28;20672;-89
2020/12/11 00:22:27;;;;;;;23.60;21.60;;;3.50;99.90;;;;;;5095296;28;20612;-89
2020/12/11 00:24:54;;;;;;;21.40;19.57;;;3.50;99.90;;;;;;5082888;28;20606;-89
2020/12/11 00:27:20;;;;;;;23.20;21.20;;;3.50;99.90;;;;;;5090150;28;20608;-89
2020/12/11 00:29:47;;;;;;;22.67;20.73;;;3.40;99.90;;;;;;5090071;28;20656;-89
2020/12/11 00:32:14;;;;;;;21.77;19.87;;;3.40;99.90;;;;;;5094114;28;20616;-89
2020/12/11 00:34:40;;;;;;;23.23;21.27;;;3.50;99.90;;;;;;5090637;28;20647;-90
2020/12/11 00:37:08;;;;;;;21.43;19.63;;;3.50;99.90;;;;;;5089604;28;20624;-90
2020/12/11 00:39:34;;;;;;;21.73;19.80;;;3.50;99.90;;;;;;5092074;28;20645;-89
2020/12/11 00:42:01;;;;;;;21.47;19.70;;;3.50;99.90;;;;;;5097486;28;20735;-90
2020/12/11 00:44:27;;;;;;;20.77;19.03;;;3.50;99.90;;;;;;5089727;28;20633;-90
2020/12/11 00:46:55;;;;;;;20.57;18.90;;;3.50;99.90;;;;;;5093293;28;20637;-90
2020/12/11 00:49:21;;;;;;;21.73;19.93;;;3.40;99.90;;;;;;5095094;28;21135;-90
2020/12/11 00:51:52;;;;;;;21.63;19.83;;;3.50;99.90;;;;;;5094545;28;20769;-89
2020/12/11 00:54:19;;;;;;;21.00;19.27;;;3.50;99.90;;;;;;5095211;28;20663;-90
2020/12/11 00:56:45;;;;;;;20.73;19.03;;;3.50;99.90;;;;;;5095253;28;21010;-90
2020/12/11 00:59:13;;;;;;;19.27;17.67;;;3.50;99.90;;;;;;5095248;28;20651;-90
2020/12/11 01:01:39;;;;;;;19.20;17.60;;;3.50;99.90;;;;;;5094574;28;20644;-90
2020/12/11 01:04:05;;;;;;;17.33;15.93;;;3.50;99.90;;;;;;5097281;28;20631;-87
2020/12/11 01:06:32;;;;;;;18.03;16.37;;;3.50;99.90;;;;;;5091883;28;20628;-88
2020/12/11 01:08:58;;;;;;;19.27;17.53;;;3.50;99.90;;;;;;5102493;28;20652;-89
2020/12/11 01:11:25;;;;;;;20.10;18.20;;;3.50;99.90;;;;;;5097140;28;20630;-89
2020/12/11 01:13:52;;;;;;;20.30;18.50;;;3.40;99.90;;;;;;5099109;28;21046;-89
2020/12/11 01:16:18;;;;;;;19.80;18.00;;;3.40;99.90;;;;;;5093331;28;20621;-88
2020/12/11 01:18:45;;;;;;;18.70;17.10;;;3.30;99.90;;;;;;5093136;28;20660;-88
2020/12/11 01:21:11;;;;;;;19.20;17.50;;;3.30;99.90;;;;;;5092619;28;20625;-89
2020/12/11 01:23:38;;;;;;;20.33;18.63;;;3.30;99.90;;;;;;5088340;28;20621;-89
2020/12/11 01:26:07;;;;;;;19.40;17.97;;;3.20;99.90;;;;;;5097880;28;20624;-88
2020/12/11 01:28:36;;;;;;;19.53;17.93;;;3.10;99.90;;;;;;5091273;28;20627;-89
2020/12/11 01:31:02;;;;;;;17.47;15.97;;;3.10;99.90;;;;;;5095702;28;20711;-90
2020/12/11 01:33:29;;;;;;;17.67;16.27;;;3.10;99.90;;;;;;5093777;28;20759;-90
2020/12/11 01:35:55;;;;;;;16.50;15.20;;;3.00;99.90;;;;;;5103462;28;20654;-90
2020/12/11 01:38:21;;;;;;;18.57;17.07;;;3.00;99.90;;;;;;5097108;28;20633;-88
2020/12/11 01:40:48;;;;;;;17.53;16.03;;;3.00;99.90;;;;;;5094609;28;20993;-89
2020/12/11 01:43:21;;;;;;;18.23;16.53;;;2.90;99.90;;;;;;5092429;28;20616;-89
2020/12/11 01:45:48;;;;;;;18.20;16.77;;;2.90;99.90;;;;;;5102625;28;20694;-88
2020/12/11 01:48:15;;;;;;;17.13;15.63;;;2.80;99.90;;;;;;5096988;28;21036;-89
2020/12/11 01:50:42;;;;;;;18.23;16.73;;;2.70;99.90;;;;;;5093613;28;20643;-90
2020/12/11 01:53:09;;;;;;;17.97;16.37;;;2.70;99.90;;;;;;5097114;28;21390;-89
2020/12/11 01:55:37;;;;;;;17.63;16.13;;;2.60;99.90;;;;;;5093042;28;20645;-89
2020/12/11 01:58:10;;;;;;;19.07;17.27;;;2.60;99.90;;;;;;5088871;28;20677;-88
2020/12/11 02:00:40;;;;;;;20.53;18.73;;;2.50;99.90;;;;;;5089377;28;20617;-88
2020/12/11 02:03:09;;;;;;;20.77;18.87;;;2.50;99.90;;;;;;5089428;28;20627;-88
2020/12/11 02:05:36;;;;;;;19.30;17.60;;;2.50;99.90;;;;;;5088979;28;20632;-89
2020/12/11 02:08:03;;;;;;;20.10;18.37;;;2.50;99.90;;;;;;5090237;28;20614;-89
2020/12/11 02:10:30;;;;;;;20.73;18.83;;;2.50;99.90;;;;;;5080742;28;20616;-87
2020/12/11 02:12:56;;;;;;;21.13;19.23;;;2.60;99.90;;;;;;5095465;28;21051;-88
2020/12/11 02:15:23;;;;;;;19.50;17.80;;;2.70;99.90;;;;;;5089004;28;20657;-89
2020/12/11 02:17:55;;;;;;;19.60;18.00;;;2.70;99.90;;;;;;5097444;28;20635;-90
2020/12/11 02:20:23;;;;;;;20.20;18.20;;;2.70;99.90;;;;;;5094206;28;20660;-89
2020/12/11 02:22:50;;;;;;;20.30;18.50;;;2.60;99.90;;;;;;5095626;28;20624;-87
2020/12/11 02:25:18;;;;;;;20.67;18.87;;;2.60;99.90;;;;;;5090318;28;20585;-88
2020/12/11 02:27:47;;;;;;;21.90;19.90;;;2.50;99.90;;;;;;5097882;28;21201;-88
2020/12/11 02:30:14;;;;;;;20.80;19.00;;;2.50;99.90;;;;;;5092933;28;20642;-88
2020/12/11 02:32:40;;;;;;;22.20;20.07;;;2.50;99.90;;;;;;5087220;28;20670;-88
2020/12/11 02:35:07;;;;;;;22.43;20.43;;;2.50;99.90;;;;;;5088134;28;20613;-88
2020/12/11 02:37:41;;;;;;;21.50;19.53;;;2.50;99.90;;;;;;5089197;28;21193;-88
2020/12/11 02:40:10;;;;;;;20.20;18.40;;;2.40;99.90;;;;;;5088947;28;20633;-89
2020/12/11 02:42:37;;;;;;;20.60;18.87;;;2.40;99.90;;;;;;5088480;28;20620;-89
2020/12/11 02:45:05;;;;;;;23.17;20.90;;;2.40;99.90;;;;;;5093820;28;20620;-89
2020/12/11 02:47:35;;;;;;;21.97;19.87;;;2.40;99.90;;;;;;5088534;28;20615;-89
2020/12/11 02:50:02;;;;;;;23.80;21.53;;;2.30;99.90;;;;;;5092929;28;20660;-88
2020/12/11 02:52:30;;;;;;;22.03;20.13;;;2.20;99.90;;;;;;5090963;28;21007;-88
2020/12/11 02:54:56;;;;;;;20.63;18.77;;;2.20;99.90;;;;;;5096761;28;20621;-87
2020/12/11 02:57:24;;;;;;;22.97;20.87;;;2.20;99.90;;;;;;5096971;28;20635;-87
2020/12/11 02:59:50;;;;;;;23.40;21.13;;;2.10;99.90;;;;;;5091417;28;20739;-89
2020/12/11 03:02:17;;;;;;;20.83;18.83;;;2.10;99.90;;;;;;5087731;28;21223;-89
2020/12/11 03:04:45;;;;;;;23.30;21.20;;;2.10;99.90;;;;;;5090228;28;20628;-89
2020/12/11 03:07:12;;;;;;;21.70;19.60;;;2.00;99.90;;;;;;5087575;28;20652;-89
2020/12/11 03:09:38;;;;;;;24.40;22.00;;;1.90;99.90;;;;;;5093196;28;20651;-87
2020/12/11 03:12:04;;;;;;;23.47;21.17;;;1.90;99.90;;;;;;5087138;28;21156;-88
2020/12/11 03:14:32;;;;;;;23.33;21.13;;;1.90;99.90;;;;;;5093383;28;21219;-88
2020/12/11 03:16:59;;;;;;;24.00;21.70;;;1.80;99.90;;;;;;5091080;28;20620;-87
2020/12/11 03:19:26;;;;;;;25.23;22.90;;;1.80;99.90;;;;;;5090536;28;20659;-87
2020/12/11 03:21:53;;;;;;;24.87;22.50;;;1.80;99.90;;;;;;5093519;28;21158;-87
2020/12/11 03:24:20;;;;;;;23.00;20.70;;;1.80;99.90;;;;;;5094009;28;20623;-89
2020/12/11 03:26:46;;;;;;;25.40;23.10;;;1.80;99.90;;;;;;5091954;28;20608;-88
2020/12/11 03:29:13;;;;;;;25.00;22.57;;;1.80;99.90;;;;;;5095085;28;20663;-88
2020/12/11 03:31:41;;;;;;;24.17;21.97;;;1.70;99.90;;;;;;5095065;28;20627;-88
2020/12/11 03:34:07;;;;;;;21.93;20.00;;;1.80;99.90;;;;;;5097169;28;20665;-87
2020/12/11 03:36:33;;;;;;;22.83;20.83;;;1.80;99.90;;;;;;5092069;28;20637;-87
2020/12/11 03:39:00;;;;;;;22.70;20.60;;;1.80;99.90;;;;;;5092961;28;20641;-89
2020/12/11 03:41:26;;;;;;;24.80;22.50;;;1.90;99.90;;;;;;5091325;28;20624;-88
2020/12/11 03:43:53;;;;;;;24.47;22.10;;;1.70;99.90;;;;;;5093920;28;20617;-89
2020/12/11 03:46:22;;;;;;;26.73;24.33;;;1.70;99.90;;;;;;5090585;28;20620;-88
2020/12/11 03:48:51;;;;;;;25.73;23.40;;;1.60;99.90;;;;;;5088650;28;20651;-91
2020/12/11 03:51:18;;;;;;;24.80;22.40;;;1.60;99.90;;;;;;5098601;28;20631;-88
2020/12/11 03:53:45;;;;;;;23.33;21.23;;;1.70;99.90;;;;;;5096079;28;21010;-91
2020/12/11 03:56:17;;;;;;;22.87;20.77;;;1.60;99.90;;;;;;5095370;28;20636;-90
2020/12/11 03:58:45;;;;;;;24.53;22.23;;;1.40;99.90;;;;;;5093641;28;20660;-91
2020/12/11 04:01:12;;;;;;;26.67;24.17;;;1.20;99.90;;;;;;5088682;28;21147;-90
2020/12/11 04:03:42;;;;;;;25.00;22.70;;;1.10;99.90;;;;;;5095327;28;20998;-90
2020/12/11 04:06:10;;;;;;;23.73;21.40;;;1.10;99.90;;;;;;5094245;28;20671;-89
2020/12/11 04:08:39;;;;;;;25.63;23.03;;;1.20;99.90;;;;;;5105692;28;20648;-90
2020/12/11 04:11:07;;;;;;;25.50;23.03;;;1.20;99.90;;;;;;5090221;28;20621;-91
2020/12/11 04:13:33;;;;;;;25.40;22.90;;;1.20;99.90;;;;;;5091763;28;20660;-90
2020/12/11 04:16:01;;;;;;;24.57;22.17;;;1.30;99.90;;;;;;5093602;28;20612;-90
2020/12/11 04:18:27;;;;;;;25.50;22.90;;;1.20;99.90;;;;;;5088829;28;20647;-91
2020/12/11 04:20:55;;;;;;;25.53;23.13;;;1.20;99.90;;;;;;5091007;28;20616;-91
2020/12/11 04:23:24;;;;;;;25.90;23.40;;;1.10;99.90;;;;;;5089443;28;20625;-88
2020/12/11 04:25:50;;;;;;;26.60;23.90;;;1.10;99.90;;;;;;5094721;28;20620;-89
2020/12/11 04:28:17;;;;;;;26.20;23.60;;;1.10;99.90;;;;;;5092851;28;21182;-89
2020/12/11 04:30:44;;;;;;;27.90;24.93;;;1.00;99.90;;;;;;5095778;28;20635;-87
2020/12/11 04:33:11;;;;;;;25.27;22.80;;;1.00;99.90;;;;;;5095347;28;21225;-89
2020/12/11 04:35:37;;;;;;;27.23;24.53;;;1.00;99.90;;;;;;5087773;28;21171;-89
2020/12/11 04:38:04;;;;;;;26.10;23.50;;;1.10;99.90;;;;;;5098128;28;20624;-90
2020/12/11 04:40:31;;;;;;;23.63;21.33;;;1.10;99.90;;;;;;5097888;28;20620;-89
2020/12/11 04:42:59;;;;;;;25.53;23.10;;;1.10;99.90;;;;;;5092412;28;20628;-88
2020/12/11 04:45:27;;;;;;;25.87;23.47;;;1.00;99.90;;;;;;5086987;28;20615;-88
2020/12/11 04:47:55;;;;;;;25.53;23.23;;;1.10;99.90;;;;;;5088355;28;20624;-89
2020/12/11 04:50:21;;;;;;;26.00;23.40;;;1.10;99.90;;;;;;5093149;28;20657;-89
2020/12/11 04:52:49;;;;;;;25.70;23.10;;;1.10;99.90;;;;;;5090481;28;20628;-89
2020/12/11 04:55:17;;;;;;;26.00;23.57;;;1.10;99.90;;;;;;5094437;28;20636;-89
2020/12/11 04:57:47;;;;;;;26.40;23.57;;;1.00;99.90;;;;;;5091797;28;20637;-89
2020/12/11 05:00:13;;;;;;;26.43;23.80;;;1.00;99.90;;;;;;5095579;28;20671;-89
2020/12/11 05:02:44;;;;;;;26.47;23.97;;;1.10;99.90;;;;;;5103284;28;20648;-89
2020/12/11 05:05:12;;;;;;;27.60;25.00;;;1.10;99.90;;;;;;5095179;28;20639;-89
2020/12/11 05:07:40;;;;;;;26.17;23.57;;;1.00;99.90;;;;;;5102841;28;20612;-89
2020/12/11 05:10:08;;;;;;;26.20;23.67;;;0.80;99.90;;;;;;5099667;28;20670;-87
2020/12/11 05:12:35;;;;;;;25.83;23.33;;;0.70;99.90;;;;;;5101088;28;20628;-89
2020/12/11 05:15:06;;;;;;;27.20;24.60;;;0.60;99.90;;;;;;5101064;28;20631;-88
2020/12/11 05:17:35;;;;;;;28.10;25.13;;;0.60;99.90;;;;;;5096784;28;20998;-89
2020/12/11 05:20:04;;;;;;;26.03;23.40;;;0.50;99.90;;;;;;5098499;28;20643;-88
2020/12/11 05:22:33;;;;;;;25.20;22.70;;;0.60;99.90;;;;;;5090461;28;20616;-88
2020/12/11 05:25:01;;;;;;;27.27;24.57;;;0.60;99.90;;;;;;5095936;28;21224;-90
2020/12/11 05:27:36;;;;;;;27.67;24.47;;;0.60;99.90;;;;;;5098222;28;20715;-89
2020/12/11 05:30:24;;;;;;;27.07;24.20;;;0.50;99.90;;;;;;5088783;28;21241;-89
2020/12/11 05:32:54;;;;;;;27.10;24.20;;;0.40;99.90;;;;;;5091570;28;21261;-89
2020/12/11 05:35:24;;;;;;;26.00;23.50;;;0.50;99.90;;;;;;5097338;28;20632;-89
2020/12/11 05:37:52;;;;;;;26.10;23.50;;;0.50;99.90;;;;;;5091953;28;21226;-89
2020/12/11 05:40:19;;;;;;;27.47;24.70;;;0.50;99.90;;;;;;5101735;28;20664;-89
2020/12/11 05:43:04;;;;;;;25.37;22.83;;;0.40;99.90;;;;;;5096048;28;20617;-89
2020/12/11 05:45:34;;;;;;;27.37;24.57;;;0.40;99.90;;;;;;5093221;28;20640;-88
2020/12/11 05:48:01;;;;;;;26.83;24.13;;;0.30;99.90;;;;;;5090699;28;21173;-89
2020/12/11 05:50:28;;;;;;;26.13;23.37;;;0.30;99.90;;;;;;5096223;28;21304;-88
2020/12/11 05:52:54;;;;;;;26.40;23.47;;;0.20;99.90;;;;;;5095967;28;20637;-88
2020/12/11 05:55:22;;;;;;;27.03;24.17;;;0.20;99.90;;;;;;5094185;28;20632;-88
2020/12/11 05:57:52;;;;;;;27.57;24.67;;;0.30;99.90;;;;;;5092515;28;20697;-90
2020/12/11 06:00:19;;;;;;;26.63;23.90;;;0.30;99.90;;;;;;5092660;28;20777;-89
2020/12/11 06:02:48;;;;;;;27.17;24.23;;;0.20;99.90;;;;;;5092100;28;20688;-89
2020/12/11 06:05:17;;;;;;;27.63;24.90;;;0.10;99.90;;;;;;5093793;28;20701;-88
2020/12/11 06:07:47;;;;;;;28.23;25.33;;;0.00;99.90;;;;;;5090640;28;21263;-88
2020/12/11 06:10:16;;;;;;;28.87;25.90;;;0.00;99.90;;;;;;5093642;28;21212;-90
2020/12/11 06:12:43;;;;;;;27.40;24.50;;;0.00;99.90;;;;;;5089064;28;21363;-87
2020/12/11 06:15:15;;;;;;;31.40;27.70;;;0.10;99.90;;;;;;5088022;28;20636;-87
2020/12/11 06:17:47;;;;;;;28.70;25.13;;;0.00;99.90;;;;;;5086398;28;20625;-87
2020/12/11 06:20:16;;;;;;;28.93;25.90;;;0.00;99.90;;;;;;5108633;28;20658;-86
2020/12/11 06:22:44;;;;;;;26.50;23.73;;;0.20;99.90;;;;;;5092233;28;20636;-88
2020/12/11 06:25:28;;;;;;;28.93;25.83;;;0.20;99.90;;;;;;5093684;28;20625;-88
2020/12/11 06:27:55;;;;;;;30.77;25.53;;;0.30;99.90;;;;;;5092339;28;20628;-88
2020/12/11 06:30:31;;;;;;;29.40;26.30;;;0.30;99.90;;;;;;5092151;28;20652;-89
2020/12/11 06:33:00;;;;;;;28.57;25.57;;;0.20;99.90;;;;;;5085395;28;20632;-88
2020/12/11 06:35:28;;;;;;;31.23;27.87;;;0.30;99.90;;;;;;5089081;28;20682;-86
2020/12/11 06:37:55;;;;;;;30.37;26.97;;;0.30;99.90;;;;;;5087251;28;20621;-88
2020/12/11 06:40:48;;;;;;;30.77;26.40;;;0.30;99.90;;;;;;5087285;28;20729;-91
2020/12/11 06:43:36;;;;;;;33.90;25.23;;;0.20;99.90;;;;;;5091963;28;20625;-89
2020/12/11 06:46:22;;;;;;;29.13;24.90;;;0.30;99.90;;;;;;5095307;28;20654;-89
2020/12/11 06:49:08;;;;;;;26.80;22.80;;;0.20;99.90;;;;;;5088557;28;20696;-88
2020/12/11 06:51:55;;;;;;;30.03;23.47;;;0.20;99.90;;;;;;5092925;28;20640;-90
2020/12/11 06:54:50;;;;;;;30.03;24.40;;;0.20;99.90;;;;;;5092275;28;20723;-89
2020/12/11 06:57:37;;;;;;;28.60;23.40;;;0.20;99.90;;;;;;5089194;28;21024;-89
2020/12/11 07:00:24;;;;;;;29.40;25.23;;;0.20;99.90;;;;;;5090760;28;20650;-89
2020/12/11 07:03:29;;;;;;;26.57;23.77;;;0.30;99.90;;;;;;5094781;28;20628;-88
2020/12/11 07:05:57;;;;;;;32.43;22.90;;;0.30;99.90;;;;;;5095350;28;20712;-88
2020/12/11 07:08:26;;;;;;;26.93;22.47;;;0.40;99.90;;;;;;5090328;28;20625;-88
2020/12/11 07:11:03;;;;;;;27.20;23.90;;;0.50;99.90;;;;;;5111487;28;20635;-88
2020/12/11 07:13:29;;;;;;;27.33;23.53;;;0.60;99.90;;;;;;5109691;28;20636;-88
2020/12/11 07:16:00;;;;;;;27.27;24.03;;;0.60;99.90;;;;;;5115877;28;20628;-89
2020/12/11 07:18:27;;;;;;;26.53;23.43;;;0.80;99.90;;;;;;5112296;28;20632;-90
2020/12/11 07:21:00;;;;;;;27.00;24.10;;;0.80;99.90;;;;;;5122007;28;20612;-89
2020/12/11 07:23:27;;;;;;;28.30;23.47;;;0.70;99.90;;;;;;5110506;28;20689;-89
2020/12/11 07:25:56;;;;;;;25.53;22.73;;;0.70;99.90;;;;;;5118112;28;20635;-90
2020/12/11 07:28:23;;;;;;;26.83;23.87;;;0.60;99.90;;;;;;5116851;28;20625;-90
2020/12/11 07:30:53;;;;;;;28.83;25.73;;;0.50;99.90;;;;;;5101775;28;20631;-89
2020/12/11 07:33:19;;;;;;;31.20;27.40;;;0.50;99.90;;;;;;5110056;28;20695;-89
2020/12/11 07:35:47;;;;;;;27.27;24.47;;;0.60;99.90;;;;;;5119574;28;20617;-88
2020/12/11 07:38:16;;;;;;;30.67;25.73;;;0.50;99.90;;;;;;5104583;28;20636;-89
2020/12/11 07:40:53;;;;;;;34.80;27.90;;;0.50;99.90;;;;;;5106679;28;20664;-89
2020/12/11 07:43:21;;;;;;;30.40;26.30;;;0.50;99.90;;;;;;5105428;28;21173;-90
2020/12/11 07:45:48;;;;;;;32.73;27.70;;;0.50;99.90;;;;;;5109409;28;20625;-89
2020/12/11 07:48:15;;;;;;;33.87;28.70;;;0.50;99.90;;;;;;5093687;28;20604;-89
2020/12/11 07:50:45;;;;;;;30.43;26.70;;;0.50;99.90;;;;;;5091378;28;20660;-89
2020/12/11 07:53:12;;;;;;;31.77;27.97;;;0.50;99.90;;;;;;5096345;28;20633;-89
2020/12/11 07:55:41;;;;;;;31.57;26.23;;;0.50;99.90;;;;;;5099878;28;20628;-91
2020/12/11 07:58:08;;;;;;;32.93;29.40;;;0.60;99.90;;;;;;5098372;28;21266;-89
2020/12/11 08:00:38;;;;;;;35.80;30.30;;;0.60;99.90;;;;;;5100532;28;20610;-90
2020/12/11 08:03:18;;;;;;;29.93;26.70;;;0.60;99.90;;;;;;5098776;28;21007;-89
2020/12/11 08:05:44;;;;;;;34.73;29.10;;;0.60;99.90;;;;;;5096736;28;21057;-90
2020/12/11 08:08:10;;;;;;;32.40;27.30;;;0.60;99.90;;;;;;5093363;28;20719;-89
2020/12/11 08:10:41;;;;;;;36.50;28.03;;;0.80;99.90;;;;;;5093272;28;20624;-89
2020/12/11 08:13:11;;;;;;;30.57;26.80;;;0.80;99.90;;;;;;5093667;28;20983;-88
2020/12/11 08:15:38;;;;;;;31.40;27.93;;;0.80;99.90;;;;;;5113423;28;20640;-89
2020/12/11 08:18:09;;;;;;;31.20;27.93;;;0.80;99.90;;;;;;5102943;28;20601;-88
2020/12/11 08:20:48;;;;;;;29.67;25.43;;;0.80;99.90;;;;;;5090664;28;20633;-88
2020/12/11 08:23:35;;;;;;;29.90;26.90;;;1.00;99.90;;;;;;5088414;28;20632;-88
2020/12/11 08:26:10;;;;;;;29.03;26.00;;;1.00;99.90;;;;;;5085929;28;20628;-88
2020/12/11 08:28:38;;;;;;;29.93;26.57;;;1.10;99.90;;;;;;5087212;28;20654;-87
2020/12/11 08:31:22;;;;;;;30.00;26.80;;;1.20;99.90;;;;;;5085399;28;20621;-88
2020/12/11 08:33:50;;;;;;;28.93;25.83;;;1.20;99.90;;;;;;5088810;28;20656;-88
2020/12/11 08:36:23;;;;;;;29.23;26.43;;;1.20;99.90;;;;;;5082519;28;20637;-87
2020/12/11 08:39:23;;;;;;;31.70;28.47;;;1.30;99.90;;;;;;5085103;28;20657;-86
2020/12/11 08:42:06;;;;;;;30.43;27.20;;;1.30;99.90;;;;;;5091790;28;21222;-87
2020/12/11 08:44:49;;;;;;;31.83;28.27;;;1.30;99.90;;;;;;5085360;28;20643;-88
2020/12/11 08:47:48;;;;;;;30.57;27.43;;;1.60;99.90;;;;;;5090163;28;20620;-87
2020/12/11 08:50:25;;;;;;;31.87;28.20;;;1.90;99.90;;;;;;5087033;28;20648;-89
2020/12/11 08:52:51;;;;;;;29.50;26.50;;;1.90;99.90;;;;;;5090534;28;20624;-87
2020/12/11 08:55:18;;;;;;;27.90;25.13;;;1.90;99.90;;;;;;5093156;28;20655;-89
2020/12/11 08:57:49;;;;;;;29.33;26.33;;;2.00;99.90;;;;;;5091590;28;20670;-89
2020/12/11 09:00:17;;;;;;;30.47;27.37;;;1.80;99.90;;;;;;5089887;28;20662;-89
2020/12/11 09:02:43;;;;;;;30.77;27.80;;;1.90;99.90;;;;;;5087117;28;20656;-88
2020/12/11 09:05:10;;;;;;;28.30;25.47;;;2.10;99.90;;;;;;5090037;28;21001;-88
2020/12/11 09:07:36;;;;;;;26.90;23.97;;;2.00;99.90;;;;;;5082447;28;20626;-87
2020/12/11 09:10:03;;;;;;;28.60;25.80;;;2.10;99.90;;;;;;5094187;28;20659;-88
2020/12/11 09:12:29;;;;;;;28.60;25.50;;;2.10;99.90;;;;;;5095823;28;20612;-87
2020/12/11 09:14:56;;;;;;;27.97;25.10;;;2.10;99.90;;;;;;5095542;28;20656;-88
2020/12/11 09:17:23;;;;;;;28.43;25.43;;;2.30;99.90;;;;;;5091788;28;20632;-88
2020/12/11 09:19:49;;;;;;;27.77;24.93;;;2.50;99.90;;;;;;5099013;28;21033;-88
2020/12/11 09:22:16;;;;;;;28.20;25.40;;;2.50;99.90;;;;;;5088783;28;20632;-88
2020/12/11 09:24:42;;;;;;;26.13;23.60;;;2.40;99.90;;;;;;5096080;28;20626;-88
2020/12/11 09:27:11;;;;;;;26.13;23.57;;;2.50;99.90;;;;;;5092222;28;21158;-88
2020/12/11 09:29:40;;;;;;;31.40;23.87;;;2.60;99.90;;;;;;5090061;28;20644;-88
2020/12/11 09:32:07;;;;;;;26.90;23.70;;;2.70;99.90;;;;;;5090591;28;20623;-88
2020/12/11 09:34:35;;;;;;;25.40;22.57;;;2.50;99.90;;;;;;5093913;28;20656;-88
2020/12/11 09:37:03;;;;;;;25.47;22.87;;;2.50;99.90;;;;;;5097950;28;20640;-88
2020/12/11 09:39:29;;;;;;;25.70;22.90;;;2.60;99.90;;;;;;5094476;28;20828;-88
2020/12/11 09:42:00;;;;;;;24.40;21.90;;;2.70;99.90;;;;;;5097280;28;20658;-88
2020/12/11 09:50:09;;;;;;;23.17;20.87;;;3.00;99.90;;;;;;5094931;28;21190;-89
2020/12/11 09:52:47;;;;;;;25.43;22.73;;;2.90;99.90;;;;;;5092637;28;20628;-87
2020/12/11 09:55:13;;;;;;;24.30;21.87;;;3.00;99.90;;;;;;5091938;28;20663;-87
2020/12/11 09:57:40;;;;;;;22.30;20.07;;;3.10;99.90;;;;;;5091593;28;20634;-88
2020/12/11 10:00:07;;;;;;;22.40;20.20;;;3.00;99.90;;;;;;5091395;28;21272;-89
2020/12/11 10:02:44;;;;;;;22.50;20.20;;;3.00;99.90;;;;;;5093861;28;20713;-88
2020/12/11 10:05:11;;;;;;;23.27;20.97;;;2.90;99.90;;;;;;5091200;28;20706;-88
2020/12/11 10:07:38;;;;;;;21.87;19.80;;;2.90;99.90;;;;;;5094113;28;20616;-88
2020/12/11 10:10:04;;;;;;;21.50;19.40;;;2.90;99.90;;;;;;5091427;28;21221;-88
2020/12/11 10:12:30;;;;;;;20.50;18.40;;;3.00;99.90;;;;;;5093776;28;20621;-89
2020/12/11 10:14:59;;;;;;;22.47;20.27;;;3.20;99.90;;;;;;5089589;28;20659;-87
2020/12/11 10:17:25;;;;;;;21.07;18.97;;;3.10;99.90;;;;;;5084999;28;20689;-87
2020/12/11 10:19:58;;;;;;;23.07;20.87;;;3.30;99.90;;;;;;5094518;28;21098;-87
2020/12/11 10:22:25;;;;;;;22.20;19.20;;;3.40;99.90;;;;;;5086754;28;20607;-88
2020/12/11 10:24:51;;;;;;;21.20;19.20;;;3.50;99.90;;;;;;5095635;28;20694;-87
2020/12/11 10:27:18;;;;;;;21.10;19.00;;;3.40;99.90;;;;;;5087840;28;20804;-87
2020/12/11 10:29:44;;;;;;;20.90;18.90;;;3.50;99.90;;;;;;5088222;28;21194;-87
2020/12/11 10:32:10;;;;;;;20.10;18.20;;;3.50;99.90;;;;;;5091441;28;20629;-87
2020/12/11 10:34:37;;;;;;;20.90;18.73;;;3.50;99.90;;;;;;5089887;28;20680;-88
2020/12/11 10:37:06;;;;;;;21.93;19.60;;;3.60;99.90;;;;;;5084407;28;20985;-87
2020/12/11 10:39:34;;;;;;;22.03;19.90;;;3.50;99.90;;;;;;5081759;28;20652;-86
2020/12/11 10:42:01;;;;;;;21.47;19.37;;;3.60;99.90;;;;;;5092721;28;20634;-87
2020/12/11 10:44:28;;;;;;;21.53;19.43;;;3.50;99.90;;;;;;5096836;28;20631;-86
2020/12/11 10:46:54;;;;;;;22.53;19.80;;;3.30;99.90;;;;;;5096240;28;20631;-86
2020/12/11 10:49:21;;;;;;;20.47;18.37;;;3.50;99.90;;;;;;5092900;28;20653;-87
2020/12/11 10:51:48;;;;;;;22.73;20.50;;;3.30;99.90;;;;;;5092418;28;20616;-88
2020/12/11 10:54:17;;;;;;;21.70;19.70;;;3.30;99.90;;;;;;5089648;28;21262;-86
2020/12/11 10:56:44;;;;;;;22.23;19.97;;;3.50;99.90;;;;;;5090960;28;20616;-88
2020/12/11 10:59:11;;;;;;;21.13;19.03;;;3.40;99.90;;;;;;5087256;28;20995;-87
2020/12/11 11:01:38;;;;;;;23.50;21.30;;;3.30;99.90;;;;;;5087934;28;21119;-88
2020/12/11 11:04:06;;;;;;;22.53;20.43;;;3.20;99.90;;;;;;5091234;28;20672;-87
2020/12/11 11:06:35;;;;;;;25.30;20.90;;;3.40;99.90;;;;;;5093470;28;20679;-87
2020/12/11 11:09:15;;;;;;;21.63;19.43;;;3.50;99.90;;;;;;5091935;28;20655;-88
2020/12/11 11:11:44;;;;;;;23.57;21.27;;;3.70;99.90;;;;;;5082667;28;20709;-89
2020/12/11 11:14:34;;;;;;;22.60;20.40;;;3.80;99.90;;;;;;5089362;28;21202;-87
2020/12/11 11:17:32;;;;;;;21.10;19.03;;;3.90;99.90;;;;;;5093778;28;20635;-86
2020/12/11 11:20:11;;;;;;;21.13;19.10;;;4.10;99.90;;;;;;5098645;28;20652;-87
2020/12/11 11:22:52;;;;;;;22.80;20.70;;;4.30;99.90;;;;;;5083892;28;20639;-87
2020/12/11 11:27:55;;;;;;;19.43;17.63;;;5.00;99.90;;;;;;5093887;28;20623;-87
2020/12/11 11:30:25;;;;;;;18.63;16.83;;;5.20;99.90;;;;;;5088791;28;21257;-87
2020/12/11 11:32:52;;;;;;;19.17;17.37;;;5.20;99.90;;;;;;5095156;28;21173;-87
2020/12/11 11:35:18;;;;;;;18.97;16.70;;;5.10;99.90;;;;;;5094523;28;20680;-88
2020/12/11 11:37:45;;;;;;;17.03;15.43;;;5.00;99.90;;;;;;5098768;28;21077;-88
2020/12/11 11:40:12;;;;;;;24.87;16.47;;;5.00;99.90;;;;;;5095442;28;20656;-88
2020/12/11 11:42:38;;;;;;;20.40;18.50;;;4.80;99.90;;;;;;5100454;28;20613;-89
2020/12/11 11:45:06;;;;;;;20.80;18.80;;;4.80;99.90;;;;;;5104519;28;20621;-87
2020/12/11 11:47:36;;;;;;;20.83;18.93;;;4.90;99.90;;;;;;5104307;28;21206;-88
2020/12/11 11:53:01;;;;;;;20.70;18.60;;;4.70;99.90;;;;;;5067495;28;20628;-87
2020/12/11 11:55:27;;;;;;;20.77;18.77;;;4.90;99.90;;;;;;5099446;28;20664;-88
2020/12/11 11:57:54;;;;;;;21.00;18.80;;;5.10;99.90;;;;;;5102744;28;20631;-87
2020/12/11 12:00:20;;;;;;;20.63;18.53;;;4.90;99.90;;;;;;5099883;28;20687;-89
2020/12/11 12:02:49;;;;;;;22.33;20.13;;;5.10;99.90;;;;;;5105455;28;21093;-87
2020/12/11 12:05:16;;;;;;;20.83;18.93;;;4.90;99.90;;;;;;5105367;28;20618;-88
2020/12/11 12:07:42;;;;;;;23.03;20.53;;;5.20;99.90;;;;;;5094987;28;20716;-87
2020/12/11 12:10:09;;;;;;;22.60;20.17;;;5.20;99.90;;;;;;5084215;28;20651;-88
2020/12/11 12:12:38;;;;;;;22.57;17.90;;;5.20;99.90;;;;;;5087614;28;20972;-87
2020/12/11 12:15:06;;;;;;;23.57;21.10;;;5.00;99.90;;;;;;5093686;28;20663;-87
2020/12/11 12:17:36;;;;;;;22.07;19.77;;;4.80;99.90;;;;;;5091700;28;20639;-87
2020/12/11 12:20:07;;;;;;;21.00;18.80;;;5.10;99.90;;;;;;5099616;28;20650;-88
2020/12/11 12:30:51;;;;;;;20.03;18.23;;;5.30;99.90;;;;;;5096744;28;20651;-87
2020/12/11 12:36:50;;;;;;;21.60;19.40;;;5.70;99.90;;;;;;5086163;28;20683;-87
2020/12/11 12:42:39;;;;;;;22.60;19.60;;;5.50;99.90;;;;;;5072649;28;20615;-87
2020/12/11 12:45:07;;;;;;;21.43;19.33;;;5.40;99.90;;;;;;5089367;28;20624;-87
2020/12/11 12:47:33;;;;;;;21.40;19.37;;;5.50;99.90;;;;;;5100732;28;21238;-87
2020/12/11 12:50:01;;;;;;;21.43;19.33;;;5.50;99.90;;;;;;5089848;28;20783;-87
2020/12/11 12:52:28;;;;;;;24.87;22.37;;;5.50;99.90;;;;;;5096185;28;20625;-87
2020/12/11 12:54:54;;;;;;;23.73;21.53;;;5.60;99.90;;;;;;5094424;28;20670;-87
2020/12/11 12:57:24;;;;;;;22.83;20.77;;;5.60;99.90;;;;;;5092904;28;20620;-87
2020/12/11 12:59:56;;;;;;;22.83;20.67;;;5.50;99.90;;;;;;5090207;28;20661;-87
2020/12/11 13:05:12;;;;;;;21.67;19.43;;;5.20;99.90;;;;;;5100551;28;20825;-87
2020/12/11 13:07:39;;;;;;;22.90;20.50;;;5.00;99.90;;;;;;5088138;28;20592;-86
2020/12/11 13:10:06;;;;;;;21.80;19.70;;;5.10;99.90;;;;;;5089445;28;21010;-87
2020/12/11 13:12:32;;;;;;;22.80;20.67;;;4.90;99.90;;;;;;5091239;28;21198;-87
2020/12/11 13:14:59;;;;;;;23.37;20.97;;;4.90;99.90;;;;;;5088768;28;20664;-87